sensor_id;sensor_type;location;lat;lon;timestamp;temperature;humidity
19906;DHT22;10115;50.906;4.438;2024-01-25T00:02:04;9.00;99.90
19906;DHT22;10115;50.906;4.438;2024-01-25T00:04:30;9.00;99.90
19906;DHT22;10115;50.906;4.438;2024-01-25T00:06:55;9.00;99.90
19906;DHT22;10115;50.906;4.438;2024-01-25T00:09:21;8.90;99.90
19906;DHT22;10115;50.906;4.438;2024-01-25T00:11:47;8.90;99.90
19906;DHT22;10115;50.906;4.438;2024-01-25T00:14:12;8.80;99.90
19906;DHT22;10115;50.906;4.438;2024-01-25T00:16:41;8.80;99.90
19906;DHT22;10115;50.906;4.438;2024-01-25T00:19:08;8.80;99.90
19906;DHT22;10115;50.906;4.438;2024-01-25T00:21:33;8.70;99.90
19906;DHT22;10115;50.906;4.438;2024-01-25T00:23:59;8.70;99.90
19906;DHT22;10115;50.906;4.438;2024-01-25T00:26:24;8.70;99.90
19906;DHT22;10115;50.906;4.438;2024-01-25T00:28:50;8.70;99.90
19906;DHT22;10115;50.906;4.438;2024-01-25T00:31:16;8.60;99.90
19906;DHT22;10115;50.906;4.438;2024-01-25T00:33:41;8.50;99.90
19906;DHT22;10115;50.906;4.438;2024-01-25T00:36:08;8.50;99.90
19906;DHT22;10115;50.906;4.438;2024-01-25T00:38:33;8.50;99.90
19906;DHT22;10115;50.906;4.438;2024-01-25T00:41:00;8.50;99.90
19906;DHT22;10115;50.906;4.438;2024-01-25T00:43:26;8.50;99.90
19906;DHT22;10115;50.906;4.438;2024-01-25T00:45:52;8.40;99.90
19906;DHT22;10115;50.906;4.438;2024-01-25T00:48:18;8.40;99.90
19906;DHT22;10115;50.906;4.438;2024-01-25T00:50:44;8.40;99.90
19906;DHT22;10115;50.906;4.438;2024-01-25T00:53:10;8.40;99.90
19906;DHT22;10115;50.906;4.438;2024-01-25T00:55:36;8.30;99.90
19906;DHT22;10115;50.906;4.438;2024-01-25T00:58:01;8.30;99.90
19906;DHT22;10115;50.906;4.438;2024-01-25T01:00:28;8.30;99.90
19906;DHT22;10115;50.906;4.438;2024-01-25T01:02:54;8.20;99.90
19906;DHT22;10115;50.906;4.438;2024-01-25T01:05:20;8.20;99.90
19906;DHT22;10115;50.906;4.438;2024-01-25T01:07:46;8.20;99.90
19906;DHT22;10115;50.906;4.438;2024-01-25T01:10:12;8.10;99.90
19906;DHT22;10115;50.906;4.438;2024-01-25T01:12:39;8.10;99.90
19906;DHT22;10115;50.906;4.438;2024-01-25T01:15:05;8.10;99.90
19906;DHT22;10115;50.906;4.438;2024-01-25T01:17:31;8.10;99.90
19906;DHT22;10115;50.906;4.438;2024-01-25T01:19:56;8.00;99.90
19906;DHT22;10115;50.906;4.438;2024-01-25T01:22:22;8.00;99.90
19906;DHT22;10115;50.906;4.438;2024-01-25T01:24:48;8.00;99.90
19906;DHT22;10115;50.906;4.438;2024-01-25T01:27:13;8.00;99.90
19906;DHT22;10115;50.906;4.438;2024-01-25T01:29:39;7.90;99.90
19906;DHT22;10115;50.906;4.438;2024-01-25T01:32:05;7.90;99.90
19906;DHT22;10115;50.906;4.438;2024-01-25T01:34:31;7.90;99.90
19906;DHT22;10115;50.906;4.438;2024-01-25T01:36:56;7.80;99.90
19906;DHT22;10115;50.906;4.438;2024-01-25T01:39:22;7.80;99.90
19906;DHT22;10115;50.906;4.438;2024-01-25T01:41:48;7.80;99.90
19906;DHT22;10115;50.906;4.438;2024-01-25T01:44:15;7.70;99.90
19906;DHT22;10115;50.906;4.438;2024-01-25T01:46:40;7.70;99.90
19906;DHT22;10115;50.906;4.438;2024-01-25T01:49:08;7.60;99.90
19906;DHT22;10115;50.906;4.438;2024-01-25T01:51:36;7.60;99.90
19906;DHT22;10115;50.906;4.438;2024-01-25T01:54:02;7.60;99.90
19906;DHT22;10115;50.906;4.438;2024-01-25T01:56:29;7.60;99.90
19906;DHT22;10115;50.906;4.438;2024-01-25T01:58:57;7.50;99.90
19906;DHT22;10115;50.906;4.438;2024-01-25T02:01:24;7.50;99.90
19906;DHT22;10115;50.906;4.438;2024-01-25T02:03:49;7.40;99.90
19906;DHT22;10115;50.906;4.438;2024-01-25T02:06:15;7.40;99.90
19906;DHT22;10115;50.906;4.438;2024-01-25T02:08:41;7.40;99.90
19906;DHT22;10115;50.906;4.438;2024-01-25T02:11:06;7.40;99.90
19906;DHT22;10115;50.906;4.438;2024-01-25T02:13:34;7.40;99.90
19906;DHT22;10115;50.906;4.438;2024-01-25T02:16:00;7.30;99.90
19906;DHT22;10115;50.906;4.438;2024-01-25T02:18:26;7.30;99.90
19906;DHT22;10115;50.906;4.438;2024-01-25T02:20:52;7.30;99.90
19906;DHT22;10115;50.906;4.438;2024-01-25T02:23:17;7.30;99.90
19906;DHT22;10115;50.906;4.438;2024-01-25T02:25:43;7.20;99.90
19906;DHT22;10115;50.906;4.438;2024-01-25T02:28:08;7.20;99.90
19906;DHT22;10115;50.906;4.438;2024-01-25T02:30:34;7.20;99.90
19906;DHT22;10115;50.906;4.438;2024-01-25T02:32:59;7.20;99.90
19906;DHT22;10115;50.906;4.438;2024-01-25T02:35:25;7.20;99.90
19906;DHT22;10115;50.906;4.438;2024-01-25T02:37:51;7.10;99.90
19906;DHT22;10115;50.906;4.438;2024-01-25T02:40:16;7.00;99.90
19906;DHT22;10115;50.906;4.438;2024-01-25T02:42:42;7.00;99.90
19906;DHT22;10115;50.906;4.438;2024-01-25T02:45:08;7.00;99.90
19906;DHT22;10115;50.906;4.438;2024-01-25T02:47:34;7.00;99.90
19906;DHT22;10115;50.906;4.438;2024-01-25T02:49:59;7.00;99.90
19906;DHT22;10115;50.906;4.438;2024-01-25T02:52:25;7.00;99.90
19906;DHT22;10115;50.906;4.438;2024-01-25T02:54:51;7.00;99.90
19906;DHT22;10115;50.906;4.438;2024-01-25T02:57:17;7.00;99.90
19906;DHT22;10115;50.906;4.438;2024-01-25T02:59:43;7.00;99.90
19906;DHT22;10115;50.906;4.438;2024-01-25T03:02:09;7.00;99.90
19906;DHT22;10115;50.906;4.438;2024-01-25T03:04:35;6.90;99.90
19906;DHT22;10115;50.906;4.438;2024-01-25T03:07:00;6.90;99.90
19906;DHT22;10115;50.906;4.438;2024-01-25T03:09:26;6.90;99.90
19906;DHT22;10115;50.906;4.438;2024-01-25T03:11:52;6.90;99.90
19906;DHT22;10115;50.906;4.438;2024-01-25T03:14:18;6.90;99.90
19906;DHT22;10115;50.906;4.438;2024-01-25T03:16:44;6.90;99.90
19906;DHT22;10115;50.906;4.438;2024-01-25T03:19:10;6.80;99.90
19906;DHT22;10115;50.906;4.438;2024-01-25T03:21:36;6.70;99.90
19906;DHT22;10115;50.906;4.438;2024-01-25T03:24:02;6.70;99.90
19906;DHT22;10115;50.906;4.438;2024-01-25T03:26:28;6.70;99.90
19906;DHT22;10115;50.906;4.438;2024-01-25T03:28:54;6.70;99.90
19906;DHT22;10115;50.906;4.438;2024-01-25T03:31:19;6.70;99.90
19906;DHT22;10115;50.906;4.438;2024-01-25T03:33:45;6.70;99.90
19906;DHT22;10115;50.906;4.438;2024-01-25T03:36:13;6.60;99.90
19906;DHT22;10115;50.906;4.438;2024-01-25T03:38:39;6.60;99.90
19906;DHT22;10115;50.906;4.438;2024-01-25T03:41:05;6.60;99.90
19906;DHT22;10115;50.906;4.438;2024-01-25T03:43:30;6.50;99.90
19906;DHT22;10115;50.906;4.438;2024-01-25T03:45:56;6.40;99.90
19906;DHT22;10115;50.906;4.438;2024-01-25T03:48:21;6.40;99.90
19906;DHT22;10115;50.906;4.438;2024-01-25T03:50:47;6.40;99.90
19906;DHT22;10115;50.906;4.438;2024-01-25T03:53:13;6.40;99.90
19906;DHT22;10115;50.906;4.438;2024-01-25T03:55:39;6.40;99.90
19906;DHT22;10115;50.906;4.438;2024-01-25T03:58:04;6.50;99.90
19906;DHT22;10115;50.906;4.438;2024-01-25T04:00:31;6.50;99.90
19906;DHT22;10115;50.906;4.438;2024-01-25T04:02:56;6.40;99.90
19906;DHT22;10115;50.906;4.438;2024-01-25T04:05:22;6.50;99.90
19906;DHT22;10115;50.906;4.438;2024-01-25T04:07:47;6.50;99.90
19906;DHT22;10115;50.906;4.438;2024-01-25T04:10:13;6.50;99.90
19906;DHT22;10115;50.906;4.438;2024-01-25T04:12:39;6.50;99.90
19906;DHT22;10115;50.906;4.438;2024-01-25T04:15:05;6.60;99.90
19906;DHT22;10115;50.906;4.438;2024-01-25T04:17:31;6.70;99.90
19906;DHT22;10115;50.906;4.438;2024-01-25T04:19:57;6.60;99.90
19906;DHT22;10115;50.906;4.438;2024-01-25T04:22:22;6.50;99.90
19906;DHT22;10115;50.906;4.438;2024-01-25T04:24:48;6.50;99.90
19906;DHT22;10115;50.906;4.438;2024-01-25T04:27:15;6.50;99.90
19906;DHT22;10115;50.906;4.438;2024-01-25T04:29:41;6.50;99.90
19906;DHT22;10115;50.906;4.438;2024-01-25T04:32:09;6.50;99.90
19906;DHT22;10115;50.906;4.438;2024-01-25T04:34:35;6.50;99.90
19906;DHT22;10115;50.906;4.438;2024-01-25T04:37:01;6.50;99.90
19906;DHT22;10115;50.906;4.438;2024-01-25T04:39:27;6.50;99.90
19906;DHT22;10115;50.906;4.438;2024-01-25T04:41:53;6.40;99.90
19906;DHT22;10115;50.906;4.438;2024-01-25T04:44:19;6.40;99.90
19906;DHT22;10115;50.906;4.438;2024-01-25T04:46:44;6.40;99.90
19906;DHT22;10115;50.906;4.438;2024-01-25T04:49:10;6.30;99.90
19906;DHT22;10115;50.906;4.438;2024-01-25T04:51:36;6.30;99.90
19906;DHT22;10115;50.906;4.438;2024-01-25T04:54:01;6.20;99.90
19906;DHT22;10115;50.906;4.438;2024-01-25T04:56:28;6.30;99.90
19906;DHT22;10115;50.906;4.438;2024-01-25T04:58:54;6.40;99.90
19906;DHT22;10115;50.906;4.438;2024-01-25T05:01:19;6.50;99.90
19906;DHT22;10115;50.906;4.438;2024-01-25T05:03:45;6.50;99.90
19906;DHT22;10115;50.906;4.438;2024-01-25T05:06:11;6.50;99.90
19906;DHT22;10115;50.906;4.438;2024-01-25T05:08:36;6.40;99.90
19906;DHT22;10115;50.906;4.438;2024-01-25T05:11:02;6.50;99.90
19906;DHT22;10115;50.906;4.438;2024-01-25T05:13:28;6.40;99.90
19906;DHT22;10115;50.906;4.438;2024-01-25T05:15:54;6.40;99.90
19906;DHT22;10115;50.906;4.438;2024-01-25T05:18:19;6.40;99.90
19906;DHT22;10115;50.906;4.438;2024-01-25T05:20:45;6.40;99.90
19906;DHT22;10115;50.906;4.438;2024-01-25T05:23:11;6.40;99.90
19906;DHT22;10115;50.906;4.438;2024-01-25T05:25:36;6.40;99.90
19906;DHT22;10115;50.906;4.438;2024-01-25T05:28:02;6.60;99.90
19906;DHT22;10115;50.906;4.438;2024-01-25T05:30:28;6.60;99.90
19906;DHT22;10115;50.906;4.438;2024-01-25T05:32:55;6.50;99.90
19906;DHT22;10115;50.906;4.438;2024-01-25T05:35:21;6.30;99.90
19906;DHT22;10115;50.906;4.438;2024-01-25T05:37:46;6.50;99.90
19906;DHT22;10115;50.906;4.438;2024-01-25T05:40:12;6.50;99.90
19906;DHT22;10115;50.906;4.438;2024-01-25T05:42:39;6.40;99.90
19906;DHT22;10115;50.906;4.438;2024-01-25T05:45:06;6.40;99.90
19906;DHT22;10115;50.906;4.438;2024-01-25T05:47:32;6.30;99.90
19906;DHT22;10115;50.906;4.438;2024-01-25T05:49:57;6.30;99.90
19906;DHT22;10115;50.906;4.438;2024-01-25T05:52:23;6.30;99.90
19906;DHT22;10115;50.906;4.438;2024-01-25T05:54:50;6.20;99.90
19906;DHT22;10115;50.906;4.438;2024-01-25T05:57:16;6.20;99.90
19906;DHT22;10115;50.906;4.438;2024-01-25T05:59:42;6.20;99.90
19906;DHT22;10115;50.906;4.438;2024-01-25T06:02:09;6.10;99.90
19906;DHT22;10115;50.906;4.438;2024-01-25T06:04:35;6.10;99.90
19906;DHT22;10115;50.906;4.438;2024-01-25T06:07:00;6.20;99.90
19906;DHT22;10115;50.906;4.438;2024-01-25T06:09:26;6.30;99.90
19906;DHT22;10115;50.906;4.438;2024-01-25T06:11:52;6.30;99.90
19906;DHT22;10115;50.906;4.438;2024-01-25T06:14:18;6.30;99.90
19906;DHT22;10115;50.906;4.438;2024-01-25T06:16:43;6.20;99.90
19906;DHT22;10115;50.906;4.438;2024-01-25T06:19:10;6.20;99.90
19906;DHT22;10115;50.906;4.438;2024-01-25T06:21:36;6.10;99.90
19906;DHT22;10115;50.906;4.438;2024-01-25T06:24:06;6.10;99.90
19906;DHT22;10115;50.906;4.438;2024-01-25T06:26:32;6.20;99.90
19906;DHT22;10115;50.906;4.438;2024-01-25T06:28:58;6.20;99.90
19906;DHT22;10115;50.906;4.438;2024-01-25T06:31:26;6.20;99.90
19906;DHT22;10115;50.906;4.438;2024-01-25T06:33:53;6.20;99.90
19906;DHT22;10115;50.906;4.438;2024-01-25T06:36:19;6.40;99.90
19906;DHT22;10115;50.906;4.438;2024-01-25T06:38:45;6.30;99.90
19906;DHT22;10115;50.906;4.438;2024-01-25T06:41:11;6.30;99.90
19906;DHT22;10115;50.906;4.438;2024-01-25T06:43:36;6.30;99.90
19906;DHT22;10115;50.906;4.438;2024-01-25T06:46:02;6.40;99.90
19906;DHT22;10115;50.906;4.438;2024-01-25T06:48:28;6.40;99.90
19906;DHT22;10115;50.906;4.438;2024-01-25T06:50:53;6.30;99.90
19906;DHT22;10115;50.906;4.438;2024-01-25T06:53:20;6.40;99.90
19906;DHT22;10115;50.906;4.438;2024-01-25T06:55:46;6.40;99.90
19906;DHT22;10115;50.906;4.438;2024-01-25T06:58:12;6.40;99.90
19906;DHT22;10115;50.906;4.438;2024-01-25T07:00:38;6.50;99.90
19906;DHT22;10115;50.906;4.438;2024-01-25T07:03:05;6.40;99.90
19906;DHT22;10115;50.906;4.438;2024-01-25T07:05:30;6.30;99.90
19906;DHT22;10115;50.906;4.438;2024-01-25T07:07:59;6.30;99.90
19906;DHT22;10115;50.906;4.438;2024-01-25T07:10:24;6.40;99.90
19906;DHT22;10115;50.906;4.438;2024-01-25T07:12:50;6.40;99.90
19906;DHT22;10115;50.906;4.438;2024-01-25T07:15:16;6.30;99.90
19906;DHT22;10115;50.906;4.438;2024-01-25T07:17:42;6.30;99.90
19906;DHT22;10115;50.906;4.438;2024-01-25T07:20:08;6.40;99.90
19906;DHT22;10115;50.906;4.438;2024-01-25T07:22:34;6.30;99.90
19906;DHT22;10115;50.906;4.438;2024-01-25T07:25:00;6.30;99.90
19906;DHT22;10115;50.906;4.438;2024-01-25T07:27:26;6.30;99.90
19906;DHT22;10115;50.906;4.438;2024-01-25T07:29:51;6.30;99.90
19906;DHT22;10115;50.906;4.438;2024-01-25T07:32:18;6.30;99.90
19906;DHT22;10115;50.906;4.438;2024-01-25T07:34:44;6.30;99.90
19906;DHT22;10115;50.906;4.438;2024-01-25T07:37:09;6.40;99.90
19906;DHT22;10115;50.906;4.438;2024-01-25T07:39:36;6.40;99.90
19906;DHT22;10115;50.906;4.438;2024-01-25T07:42:02;6.30;99.90
19906;DHT22;10115;50.906;4.438;2024-01-25T07:44:28;6.30;99.90
19906;DHT22;10115;50.906;4.438;2024-01-25T07:46:53;6.40;99.90
19906;DHT22;10115;50.906;4.438;2024-01-25T07:49:19;6.30;99.90
19906;DHT22;10115;50.906;4.438;2024-01-25T07:51:45;6.40;99.90
19906;DHT22;10115;50.906;4.438;2024-01-25T07:54:10;6.40;99.90
19906;DHT22;10115;50.906;4.438;2024-01-25T07:56:36;6.40;99.90
19906;DHT22;10115;50.906;4.438;2024-01-25T07:59:02;6.50;99.90
19906;DHT22;10115;50.906;4.438;2024-01-25T08:01:27;6.40;99.90
19906;DHT22;10115;50.906;4.438;2024-01-25T08:03:53;6.40;99.90
19906;DHT22;10115;50.906;4.438;2024-01-25T08:06:19;6.40;99.90
19906;DHT22;10115;50.906;4.438;2024-01-25T08:08:44;6.30;99.90
19906;DHT22;10115;50.906;4.438;2024-01-25T08:11:10;6.20;99.90
19906;DHT22;10115;50.906;4.438;2024-01-25T08:13:35;6.30;99.90
19906;DHT22;10115;50.906;4.438;2024-01-25T08:16:01;6.40;99.90
19906;DHT22;10115;50.906;4.438;2024-01-25T08:18:27;6.60;99.90
19906;DHT22;10115;50.906;4.438;2024-01-25T08:20:55;6.70;99.90
19906;DHT22;10115;50.906;4.438;2024-01-25T08:23:21;6.90;99.90
19906;DHT22;10115;50.906;4.438;2024-01-25T08:25:47;7.00;99.90
19906;DHT22;10115;50.906;4.438;2024-01-25T08:28:12;6.90;99.90
19906;DHT22;10115;50.906;4.438;2024-01-25T08:30:38;6.90;99.90
19906;DHT22;10115;50.906;4.438;2024-01-25T08:33:04;6.90;99.90
19906;DHT22;10115;50.906;4.438;2024-01-25T08:35:30;6.90;99.90
19906;DHT22;10115;50.906;4.438;2024-01-25T08:37:58;6.90;99.90
19906;DHT22;10115;50.906;4.438;2024-01-25T08:40:24;7.10;99.90
19906;DHT22;10115;50.906;4.438;2024-01-25T08:42:49;7.30;99.90
19906;DHT22;10115;50.906;4.438;2024-01-25T08:45:15;7.40;99.90
19906;DHT22;10115;50.906;4.438;2024-01-25T08:47:41;7.50;99.90
19906;DHT22;10115;50.906;4.438;2024-01-25T08:50:07;7.60;99.90
19906;DHT22;10115;50.906;4.438;2024-01-25T08:52:36;7.50;99.90
19906;DHT22;10115;50.906;4.438;2024-01-25T08:55:03;7.50;99.90
19906;DHT22;10115;50.906;4.438;2024-01-25T08:57:30;7.30;99.90
19906;DHT22;10115;50.906;4.438;2024-01-25T08:59:56;7.40;99.90
19906;DHT22;10115;50.906;4.438;2024-01-25T09:02:26;7.40;99.90
19906;DHT22;10115;50.906;4.438;2024-01-25T09:04:53;7.50;99.90
19906;DHT22;10115;50.906;4.438;2024-01-25T09:07:22;7.70;99.90
19906;DHT22;10115;50.906;4.438;2024-01-25T09:09:48;7.80;99.90
19906;DHT22;10115;50.906;4.438;2024-01-25T09:12:15;7.60;99.90
19906;DHT22;10115;50.906;4.438;2024-01-25T09:14:41;7.50;99.90
19906;DHT22;10115;50.906;4.438;2024-01-25T09:17:08;7.30;99.90
19906;DHT22;10115;50.906;4.438;2024-01-25T09:19:34;7.30;99.90
19906;DHT22;10115;50.906;4.438;2024-01-25T09:22:00;7.30;99.90
19906;DHT22;10115;50.906;4.438;2024-01-25T09:24:30;7.30;99.90
19906;DHT22;10115;50.906;4.438;2024-01-25T09:26:56;7.40;99.90
19906;DHT22;10115;50.906;4.438;2024-01-25T09:29:24;7.70;99.90
19906;DHT22;10115;50.906;4.438;2024-01-25T09:31:50;7.50;99.90
19906;DHT22;10115;50.906;4.438;2024-01-25T09:34:15;7.70;99.90
19906;DHT22;10115;50.906;4.438;2024-01-25T09:36:41;7.80;99.90
19906;DHT22;10115;50.906;4.438;2024-01-25T09:39:07;7.90;99.90
19906;DHT22;10115;50.906;4.438;2024-01-25T09:41:33;7.90;99.90
19906;DHT22;10115;50.906;4.438;2024-01-25T09:43:59;8.20;99.90
19906;DHT22;10115;50.906;4.438;2024-01-25T09:46:25;8.30;99.90
19906;DHT22;10115;50.906;4.438;2024-01-25T09:48:51;8.20;99.90
19906;DHT22;10115;50.906;4.438;2024-01-25T09:51:17;8.40;99.90
19906;DHT22;10115;50.906;4.438;2024-01-25T09:53:45;8.50;99.90
19906;DHT22;10115;50.906;4.438;2024-01-25T09:56:14;8.60;99.90
19906;DHT22;10115;50.906;4.438;2024-01-25T09:58:43;8.90;99.90
19906;DHT22;10115;50.906;4.438;2024-01-25T10:01:13;8.80;99.90
19906;DHT22;10115;50.906;4.438;2024-01-25T10:03:44;9.00;99.90
19906;DHT22;10115;50.906;4.438;2024-01-25T10:06:11;9.10;99.90
19906;DHT22;10115;50.906;4.438;2024-01-25T10:08:38;9.40;99.90
19906;DHT22;10115;50.906;4.438;2024-01-25T10:11:04;9.40;99.90
19906;DHT22;10115;50.906;4.438;2024-01-25T10:13:30;9.50;99.90
19906;DHT22;10115;50.906;4.438;2024-01-25T10:15:56;9.70;99.90
19906;DHT22;10115;50.906;4.438;2024-01-25T10:18:23;9.90;99.90
19906;DHT22;10115;50.906;4.438;2024-01-25T10:20:48;9.90;99.90
19906;DHT22;10115;50.906;4.438;2024-01-25T10:23:14;10.00;99.90
19906;DHT22;10115;50.906;4.438;2024-01-25T10:25:40;9.90;99.90
19906;DHT22;10115;50.906;4.438;2024-01-25T10:28:06;10.00;99.90
19906;DHT22;10115;50.906;4.438;2024-01-25T10:30:33;10.20;99.90
19906;DHT22;10115;50.906;4.438;2024-01-25T10:33:00;10.20;99.90
19906;DHT22;10115;50.906;4.438;2024-01-25T10:35:26;10.50;99.90
19906;DHT22;10115;50.906;4.438;2024-01-25T10:37:52;10.60;99.90
19906;DHT22;10115;50.906;4.438;2024-01-25T10:40:22;10.60;99.90
19906;DHT22;10115;50.906;4.438;2024-01-25T10:42:48;10.80;99.90
19906;DHT22;10115;50.906;4.438;2024-01-25T10:45:14;10.60;99.90
19906;DHT22;10115;50.906;4.438;2024-01-25T10:47:40;10.20;99.90
19906;DHT22;10115;50.906;4.438;2024-01-25T10:50:12;10.20;99.90
19906;DHT22;10115;50.906;4.438;2024-01-25T10:52:40;9.80;99.90
19906;DHT22;10115;50.906;4.438;2024-01-25T10:55:07;9.80;99.90
19906;DHT22;10115;50.906;4.438;2024-01-25T10:57:43;10.20;99.90
19906;DHT22;10115;50.906;4.438;2024-01-25T11:00:13;10.20;99.90
19906;DHT22;10115;50.906;4.438;2024-01-25T11:02:40;10.20;99.90
19906;DHT22;10115;50.906;4.438;2024-01-25T11:05:09;10.30;99.90
19906;DHT22;10115;50.906;4.438;2024-01-25T11:07:48;10.60;99.90
19906;DHT22;10115;50.906;4.438;2024-01-25T11:10:19;10.50;99.90
19906;DHT22;10115;50.906;4.438;2024-01-25T11:12:50;10.50;99.90
19906;DHT22;10115;50.906;4.438;2024-01-25T11:15:36;10.70;99.90
19906;DHT22;10115;50.906;4.438;2024-01-25T11:18:03;10.80;99.90
19906;DHT22;10115;50.906;4.438;2024-01-25T11:20:34;10.80;99.90
19906;DHT22;10115;50.906;4.438;2024-01-25T11:23:05;10.70;99.90
19906;DHT22;10115;50.906;4.438;2024-01-25T11:25:34;10.60;99.90
19906;DHT22;10115;50.906;4.438;2024-01-25T11:28:01;10.40;99.90
19906;DHT22;10115;50.906;4.438;2024-01-25T11:30:28;10.30;99.90
19906;DHT22;10115;50.906;4.438;2024-01-25T11:32:54;10.10;99.90
19906;DHT22;10115;50.906;4.438;2024-01-25T11:35:21;10.10;99.90
19906;DHT22;10115;50.906;4.438;2024-01-25T11:37:48;10.20;99.90
19906;DHT22;10115;50.906;4.438;2024-01-25T11:40:15;10.10;99.90
19906;DHT22;10115;50.906;4.438;2024-01-25T11:42:47;10.10;99.90
19906;DHT22;10115;50.906;4.438;2024-01-25T11:45:13;10.20;99.90
19906;DHT22;10115;50.906;4.438;2024-01-25T11:47:41;10.00;99.90
19906;DHT22;10115;50.906;4.438;2024-01-25T11:50:08;9.90;99.90
19906;DHT22;10115;50.906;4.438;2024-01-25T11:52:35;10.10;99.90
19906;DHT22;10115;50.906;4.438;2024-01-25T11:55:09;10.10;99.90
19906;DHT22;10115;50.906;4.438;2024-01-25T12:00:02;10.00;99.90
19906;DHT22;10115;50.906;4.438;2024-01-25T12:02:30;10.00;99.90
19906;DHT22;10115;50.906;4.438;2024-01-25T12:04:56;10.00;99.90
19906;DHT22;10115;50.906;4.438;2024-01-25T12:07:22;10.30;99.90
19906;DHT22;10115;50.906;4.438;2024-01-25T12:10:05;10.40;99.90
19906;DHT22;10115;50.906;4.438;2024-01-25T12:12:31;10.40;99.90
19906;DHT22;10115;50.906;4.438;2024-01-25T12:15:01;10.30;99.90
19906;DHT22;10115;50.906;4.438;2024-01-25T12:17:29;10.40;99.90
19906;DHT22;10115;50.906;4.438;2024-01-25T12:19:56;10.30;99.90
19906;DHT22;10115;50.906;4.438;2024-01-25T12:22:22;10.10;99.90
19906;DHT22;10115;50.906;4.438;2024-01-25T12:24:48;10.00;99.90
19906;DHT22;10115;50.906;4.438;2024-01-25T12:27:17;10.10;99.90
19906;DHT22;10115;50.906;4.438;2024-01-25T12:29:43;10.20;99.90
19906;DHT22;10115;50.906;4.438;2024-01-25T12:32:09;10.30;99.90
19906;DHT22;10115;50.906;4.438;2024-01-25T12:34:35;10.40;99.90
19906;DHT22;10115;50.906;4.438;2024-01-25T12:37:03;10.20;99.90
19906;DHT22;10115;50.906;4.438;2024-01-25T12:39:28;10.10;99.90
19906;DHT22;10115;50.906;4.438;2024-01-25T12:41:54;10.10;99.90
19906;DHT22;10115;50.906;4.438;2024-01-25T12:44:19;10.30;99.90
19906;DHT22;10115;50.906;4.438;2024-01-25T12:46:45;10.30;99.90
19906;DHT22;10115;50.906;4.438;2024-01-25T12:49:11;10.10;99.90
19906;DHT22;10115;50.906;4.438;2024-01-25T12:51:36;10.10;99.90
19906;DHT22;10115;50.906;4.438;2024-01-25T12:54:02;10.20;99.90
19906;DHT22;10115;50.906;4.438;2024-01-25T12:56:28;10.30;99.90
19906;DHT22;10115;50.906;4.438;2024-01-25T12:58:53;10.40;99.90
19906;DHT22;10115;50.906;4.438;2024-01-25T13:01:19;10.40;99.90
19906;DHT22;10115;50.906;4.438;2024-01-25T13:03:46;10.30;99.90
19906;DHT22;10115;50.906;4.438;2024-01-25T13:06:12;10.30;99.90
19906;DHT22;10115;50.906;4.438;2024-01-25T13:08:38;10.20;99.90
19906;DHT22;10115;50.906;4.438;2024-01-25T13:11:03;10.20;99.90
19906;DHT22;10115;50.906;4.438;2024-01-25T13:13:29;10.50;99.90
19906;DHT22;10115;50.906;4.438;2024-01-25T13:15:56;10.60;99.90
19906;DHT22;10115;50.906;4.438;2024-01-25T13:18:21;10.80;99.90
19906;DHT22;10115;50.906;4.438;2024-01-25T13:20:47;10.70;99.90
19906;DHT22;10115;50.906;4.438;2024-01-25T13:23:13;10.80;99.90
19906;DHT22;10115;50.906;4.438;2024-01-25T13:25:39;10.80;99.90
19906;DHT22;10115;50.906;4.438;2024-01-25T13:28:04;10.80;99.90
19906;DHT22;10115;50.906;4.438;2024-01-25T13:30:30;10.70;99.90
19906;DHT22;10115;50.906;4.438;2024-01-25T13:32:56;10.60;99.90
19906;DHT22;10115;50.906;4.438;2024-01-25T13:35:21;10.80;99.90
19906;DHT22;10115;50.906;4.438;2024-01-25T13:37:47;10.70;99.90
19906;DHT22;10115;50.906;4.438;2024-01-25T13:40:13;10.50;99.90
19906;DHT22;10115;50.906;4.438;2024-01-25T13:42:38;10.50;99.90
19906;DHT22;10115;50.906;4.438;2024-01-25T13:45:06;10.50;99.90
19906;DHT22;10115;50.906;4.438;2024-01-25T13:47:32;10.50;99.90
19906;DHT22;10115;50.906;4.438;2024-01-25T13:49:57;10.30;99.90
19906;DHT22;10115;50.906;4.438;2024-01-25T13:52:23;10.40;99.90
19906;DHT22;10115;50.906;4.438;2024-01-25T13:54:49;10.50;99.90
19906;DHT22;10115;50.906;4.438;2024-01-25T13:57:15;10.40;99.90
19906;DHT22;10115;50.906;4.438;2024-01-25T13:59:41;10.40;99.90
19906;DHT22;10115;50.906;4.438;2024-01-25T14:02:06;10.40;99.90
19906;DHT22;10115;50.906;4.438;2024-01-25T14:04:32;10.40;99.90
19906;DHT22;10115;50.906;4.438;2024-01-25T14:06:58;10.50;99.90
19906;DHT22;10115;50.906;4.438;2024-01-25T14:09:23;10.50;99.90
19906;DHT22;10115;50.906;4.438;2024-01-25T14:11:49;10.70;99.90
19906;DHT22;10115;50.906;4.438;2024-01-25T14:14:15;10.60;99.90
19906;DHT22;10115;50.906;4.438;2024-01-25T14:16:40;10.60;99.90
19906;DHT22;10115;50.906;4.438;2024-01-25T14:19:06;10.60;99.90
19906;DHT22;10115;50.906;4.438;2024-01-25T14:21:32;10.50;99.90
19906;DHT22;10115;50.906;4.438;2024-01-25T14:23:58;10.40;99.90
19906;DHT22;10115;50.906;4.438;2024-01-25T14:26:23;10.50;99.90
19906;DHT22;10115;50.906;4.438;2024-01-25T14:28:49;10.50;99.90
19906;DHT22;10115;50.906;4.438;2024-01-25T14:31:15;10.50;99.90
19906;DHT22;10115;50.906;4.438;2024-01-25T14:33:41;10.50;99.90
19906;DHT22;10115;50.906;4.438;2024-01-25T14:36:07;10.40;99.90
19906;DHT22;10115;50.906;4.438;2024-01-25T14:38:32;10.40;99.90
19906;DHT22;10115;50.906;4.438;2024-01-25T14:40:59;10.40;99.90
19906;DHT22;10115;50.906;4.438;2024-01-25T14:43:25;10.50;99.90
19906;DHT22;10115;50.906;4.438;2024-01-25T14:45:51;10.50;99.90
19906;DHT22;10115;50.906;4.438;2024-01-25T14:48:17;10.50;99.90
19906;DHT22;10115;50.906;4.438;2024-01-25T14:50:43;10.40;99.90
19906;DHT22;10115;50.906;4.438;2024-01-25T14:53:09;10.40;99.90
19906;DHT22;10115;50.906;4.438;2024-01-25T14:55:34;10.40;99.90
19906;DHT22;10115;50.906;4.438;2024-01-25T14:58:00;10.50;99.90
19906;DHT22;10115;50.906;4.438;2024-01-25T15:00:26;10.40;99.90
19906;DHT22;10115;50.906;4.438;2024-01-25T15:02:51;10.40;99.90
19906;DHT22;10115;50.906;4.438;2024-01-25T15:05:17;10.40;99.90
19906;DHT22;10115;50.906;4.438;2024-01-25T15:07:43;10.40;99.90
19906;DHT22;10115;50.906;4.438;2024-01-25T15:10:09;10.40;99.90
19906;DHT22;10115;50.906;4.438;2024-01-25T15:12:34;10.40;99.90
19906;DHT22;10115;50.906;4.438;2024-01-25T15:15:00;10.40;99.90
19906;DHT22;10115;50.906;4.438;2024-01-25T15:17:26;10.30;99.90
19906;DHT22;10115;50.906;4.438;2024-01-25T15:19:52;10.40;99.90
19906;DHT22;10115;50.906;4.438;2024-01-25T15:22:17;10.30;99.90
19906;DHT22;10115;50.906;4.438;2024-01-25T15:24:43;10.30;99.90
19906;DHT22;10115;50.906;4.438;2024-01-25T15:27:10;10.30;99.90
19906;DHT22;10115;50.906;4.438;2024-01-25T15:29:39;10.30;99.90
19906;DHT22;10115;50.906;4.438;2024-01-25T15:32:05;10.30;99.90
19906;DHT22;10115;50.906;4.438;2024-01-25T15:34:31;10.30;99.90
19906;DHT22;10115;50.906;4.438;2024-01-25T15:36:57;10.40;99.90